Time;durP1;ratioP1;P1;durP2;ratioP2;P2;SDS_P1;SDS_P2;PMS_P1;PMS_P2;Temp;Humidity;BMP_temperature;BMP_pressure;BME280_temperature;BME280_humidity;BME280_pressure;Samples;Min_cycle;Max_cycle;Signal;HPM_P1;HPM_P2
2022/06/18 00:02:51;;;;;;;2.13;0.85;;;19.10;83.10;;;;;;6253684;28;20042;-80
2022/06/18 00:05:55;;;;;;;4.90;1.05;;;19.10;83.50;;;;;;6254219;28;20045;-80
2022/06/18 00:08:57;;;;;;;1.85;0.90;;;19.00;83.90;;;;;;6253483;28;20181;-81
2022/06/18 00:15:29;;;;;;;1.42;0.90;;;19.00;84.80;;;;;;6251280;28;20049;-80
2022/06/18 00:18:32;;;;;;;1.27;0.88;;;19.00;85.70;;;;;;6253430;28;20041;-79
2022/06/18 00:21:34;;;;;;;1.65;0.90;;;19.00;85.30;;;;;;6254041;28;20053;-80
2022/06/18 00:24:36;;;;;;;2.38;1.20;;;18.90;85.40;;;;;;6253249;28;20046;-78
2022/06/18 00:27:37;;;;;;;1.20;0.85;;;18.90;85.90;;;;;;6252510;28;20136;-79
2022/06/18 00:30:40;;;;;;;1.15;0.70;;;18.90;86.00;;;;;;6253016;28;20619;-79
2022/06/18 00:33:43;;;;;;;1.17;0.70;;;18.80;86.30;;;;;;6253389;28;20129;-79
2022/06/18 00:36:45;;;;;;;2.58;1.00;;;18.80;86.40;;;;;;6253220;28;20100;-80
2022/06/18 00:39:47;;;;;;;2.30;0.93;;;18.80;86.20;;;;;;6252711;28;20506;-79
2022/06/18 00:42:50;;;;;;;3.97;0.90;;;18.70;86.30;;;;;;6252808;28;20491;-79
2022/06/18 00:45:56;;;;;;;1.75;0.80;;;18.70;86.50;;;;;;6252939;28;20045;-79
2022/06/18 00:49:05;;;;;;;1.15;0.85;;;18.70;86.60;;;;;;6251915;28;20045;-79
2022/06/18 00:52:15;;;;;;;0.70;0.65;;;18.60;86.60;;;;;;6252484;28;20530;-79
2022/06/18 00:55:21;;;;;;;1.02;0.50;;;18.60;86.50;;;;;;6252274;28;20434;-79
2022/06/18 00:58:27;;;;;;;0.90;0.60;;;18.50;86.70;;;;;;6254976;28;20055;-79
2022/06/18 01:01:32;;;;;;;0.75;0.60;;;18.50;86.90;;;;;;6262379;28;20054;-78
2022/06/18 01:04:36;;;;;;;1.65;0.70;;;18.50;87.10;;;;;;6255243;28;20052;-80
2022/06/18 01:07:38;;;;;;;1.45;0.80;;;18.40;87.40;;;;;;6252363;28;20148;-80
2022/06/18 01:10:43;;;;;;;1.42;1.02;;;18.40;87.50;;;;;;6251988;28;20049;-80
2022/06/18 01:13:45;;;;;;;1.33;0.95;;;18.30;87.90;;;;;;6252938;28;20195;-81
2022/06/18 01:16:47;;;;;;;1.95;0.95;;;18.30;88.00;;;;;;6252592;28;20046;-81
2022/06/18 01:19:51;;;;;;;4.20;1.15;;;18.20;87.80;;;;;;6252497;28;20042;-80
2022/06/18 01:22:59;;;;;;;1.10;0.77;;;18.10;87.80;;;;;;6252613;28;20052;-81
2022/06/18 01:26:03;;;;;;;1.05;0.77;;;18.10;88.10;;;;;;6253110;28;20052;-81
2022/06/18 01:29:05;;;;;;;1.80;0.80;;;18.10;88.30;;;;;;6251637;28;20469;-79
2022/06/18 01:32:11;;;;;;;2.53;1.10;;;18.10;88.50;;;;;;6252195;28;20045;-79
2022/06/18 01:35:14;;;;;;;2.30;1.02;;;18.00;88.50;;;;;;6251679;28;20037;-81
2022/06/18 01:38:17;;;;;;;1.83;0.80;;;18.00;88.80;;;;;;6251912;28;20514;-80
2022/06/18 01:44:47;;;;;;;3.10;0.63;;;17.90;89.10;;;;;;6252129;28;20045;-80
2022/06/18 01:47:55;;;;;;;1.67;0.90;;;17.80;89.40;;;;;;6251142;28;20046;-79
2022/06/18 01:51:01;;;;;;;2.85;0.60;;;17.80;89.70;;;;;;6251220;28;20425;-77
2022/06/18 01:54:10;;;;;;;1.52;0.75;;;17.80;89.80;;;;;;6251411;28;20052;-79
2022/06/18 01:57:16;;;;;;;1.40;0.82;;;17.70;89.80;;;;;;6250490;28;20149;-79
2022/06/18 02:00:21;;;;;;;2.78;1.13;;;17.70;90.00;;;;;;6248894;28;20052;-79
2022/06/18 02:03:23;;;;;;;1.08;0.73;;;17.70;90.10;;;;;;6246292;28;20107;-81
2022/06/18 02:06:25;;;;;;;1.27;0.95;;;17.70;90.10;;;;;;6251232;28;20071;-80
2022/06/18 02:09:35;;;;;;;4.90;1.00;;;17.70;90.00;;;;;;6250649;28;20051;-80
2022/06/18 02:12:40;;;;;;;7.65;0.90;;;17.70;90.10;;;;;;6251391;28;20056;-81
2022/06/18 02:15:45;;;;;;;4.90;1.02;;;17.70;90.20;;;;;;6250891;28;20056;-81
2022/06/18 02:18:49;;;;;;;1.85;1.10;;;17.70;90.30;;;;;;6250512;28;20059;-80
2022/06/18 02:21:55;;;;;;;0.80;0.65;;;17.60;90.40;;;;;;6250534;28;20793;-79
2022/06/18 02:24:58;;;;;;;3.05;0.90;;;17.60;90.70;;;;;;6250071;28;20434;-78
2022/06/18 02:28:04;;;;;;;0.73;0.70;;;17.60;90.50;;;;;;6250192;28;20049;-81
2022/06/18 02:31:07;;;;;;;3.33;0.75;;;17.50;90.40;;;;;;6249892;28;20049;-78
2022/06/18 02:34:13;;;;;;;2.67;0.93;;;17.50;90.50;;;;;;6251166;28;20056;-79
2022/06/18 02:37:22;;;;;;;1.38;0.93;;;17.40;90.60;;;;;;6249960;28;20245;-80
2022/06/18 02:40:27;;;;;;;1.38;0.80;;;17.40;90.60;;;;;;6251049;28;20049;-79
2022/06/18 02:43:31;;;;;;;1.77;0.95;;;17.30;90.70;;;;;;6250100;28;20560;-80
2022/06/18 02:46:33;;;;;;;1.63;0.80;;;17.20;90.90;;;;;;6250416;28;20094;-81
2022/06/18 02:49:36;;;;;;;1.45;0.70;;;17.20;91.00;;;;;;6250234;28;20053;-80
2022/06/18 02:52:41;;;;;;;1.60;0.90;;;17.20;91.20;;;;;;6245256;28;20132;-79
2022/06/18 02:55:46;;;;;;;3.00;0.95;;;17.20;91.20;;;;;;6247767;28;20414;-79
2022/06/18 02:58:50;;;;;;;3.47;1.23;;;17.20;91.20;;;;;;6248074;28;20053;-79
2022/06/18 03:01:51;;;;;;;3.45;1.08;;;17.20;91.20;;;;;;6247968;28;20071;-79
2022/06/18 03:04:53;;;;;;;1.98;1.00;;;17.10;91.10;;;;;;6244166;28;20052;-79
2022/06/18 03:07:55;;;;;;;2.95;1.00;;;17.10;91.20;;;;;;6247621;28;20051;-78
2022/06/18 03:14:29;;;;;;;1.88;0.88;;;17.00;91.40;;;;;;6172513;28;20050;-77
2022/06/18 03:17:31;;;;;;;4.53;1.17;;;17.10;91.50;;;;;;6171323;28;20057;-79
2022/06/18 03:20:45;;;;;;;3.72;0.80;;;17.10;91.40;;;;;;6170626;28;20047;-79
2022/06/18 03:23:48;;;;;;;2.95;0.77;;;17.00;91.60;;;;;;6242399;28;20052;-78
2022/06/18 03:26:50;;;;;;;2.83;1.10;;;17.10;91.60;;;;;;6247532;28;20060;-78
2022/06/18 03:29:53;;;;;;;1.75;0.93;;;17.10;91.60;;;;;;6247343;28;20106;-78
2022/06/18 03:32:54;;;;;;;2.08;0.93;;;17.20;91.50;;;;;;6250402;28;20046;-80
2022/06/18 03:35:56;;;;;;;1.00;0.75;;;17.20;91.40;;;;;;6248579;28;20049;-79
2022/06/18 03:38:58;;;;;;;1.58;1.20;;;17.20;91.40;;;;;;6250210;28;20053;-80
2022/06/18 03:42:00;;;;;;;1.23;0.70;;;17.10;91.40;;;;;;6249537;28;20052;-79
2022/06/18 03:45:03;;;;;;;3.75;1.10;;;17.00;91.40;;;;;;6250110;28;20417;-79
2022/06/18 03:48:06;;;;;;;2.58;1.35;;;17.00;91.60;;;;;;6248951;28;20050;-80
2022/06/18 03:51:08;;;;;;;2.33;0.80;;;17.10;91.70;;;;;;6249137;28;20415;-78
2022/06/18 03:54:10;;;;;;;1.70;0.93;;;17.20;91.50;;;;;;6248405;28;20494;-80
2022/06/18 03:57:17;;;;;;;3.08;1.20;;;17.30;91.50;;;;;;6247656;28;20049;-79
2022/06/18 04:00:23;;;;;;;1.13;0.70;;;17.30;91.30;;;;;;6248289;28;20048;-79
2022/06/18 04:03:25;;;;;;;1.00;0.75;;;17.40;91.20;;;;;;6247842;28;20053;-80
2022/06/18 04:06:29;;;;;;;1.30;0.90;;;17.40;91.20;;;;;;6248850;28;20049;-79
2022/06/18 04:09:31;;;;;;;3.78;1.08;;;17.60;91.00;;;;;;6248192;28;20108;-80
2022/06/18 04:12:32;;;;;;;5.57;0.82;;;17.60;90.80;;;;;;6248213;28;20068;-80
2022/06/18 04:15:36;;;;;;;2.13;1.17;;;17.80;90.70;;;;;;6257078;28;20048;-79
2022/06/18 04:18:38;;;;;;;3.40;1.17;;;18.00;90.40;;;;;;6257904;28;20046;-81
2022/06/18 04:21:40;;;;;;;3.35;0.90;;;18.20;90.20;;;;;;6248704;28;20053;-82
2022/06/18 04:24:42;;;;;;;1.73;1.00;;;18.50;89.60;;;;;;6248740;28;20045;-81
2022/06/18 04:27:44;;;;;;;1.48;0.70;;;18.70;88.90;;;;;;6249989;28;20054;-81
2022/06/18 04:30:47;;;;;;;1.08;0.98;;;19.00;87.50;;;;;;6249092;28;20518;-81
2022/06/18 04:33:49;;;;;;;2.47;0.80;;;19.50;86.10;;;;;;6248184;28;20069;-80
2022/06/18 04:36:51;;;;;;;3.83;1.15;;;19.90;85.00;;;;;;6248415;28;20075;-80
2022/06/18 04:39:52;;;;;;;3.20;0.80;;;20.60;83.10;;;;;;6247276;28;20046;-80
2022/06/18 04:42:54;;;;;;;1.80;0.82;;;21.40;80.60;;;;;;6246911;28;20058;-80
2022/06/18 04:45:57;;;;;;;0.85;0.70;;;22.30;78.10;;;;;;6247468;28;20055;-80
2022/06/18 04:48:59;;;;;;;2.05;0.85;;;22.90;75.60;;;;;;6250213;28;20053;-80
2022/06/18 04:52:01;;;;;;;2.78;1.00;;;23.40;73.70;;;;;;6251439;28;20045;-79
2022/06/18 04:55:03;;;;;;;5.13;0.80;;;24.20;71.00;;;;;;6251256;28;20502;-80
2022/06/18 04:58:05;;;;;;;1.92;0.90;;;25.00;67.80;;;;;;6250237;28;20049;-80
2022/06/18 05:01:13;;;;;;;2.88;0.90;;;25.70;65.10;;;;;;6279686;23;20036;-86
2022/06/18 05:04:15;;;;;;;7.97;3.67;;;26.30;63.00;;;;;;6312823;28;20045;-86
2022/06/18 05:07:17;;;;;;;7.55;3.05;;;27.00;60.90;;;;;;6310651;28;20108;-85
2022/06/18 05:10:19;;;;;;;5.35;2.67;;;27.70;58.70;;;;;;6306979;28;20517;-83
2022/06/18 05:13:21;;;;;;;3.05;1.08;;;28.30;56.80;;;;;;6307338;28;20048;-84
2022/06/18 05:16:25;;;;;;;3.70;1.08;;;28.80;55.50;;;;;;6307369;28;20044;-85
2022/06/18 05:19:30;;;;;;;5.45;1.05;;;29.40;53.90;;;;;;6309536;28;20051;-86
2022/06/18 05:22:31;;;;;;;3.35;0.65;;;30.10;52.20;;;;;;6309868;28;20055;-86
2022/06/18 05:25:33;;;;;;;1.20;0.60;;;30.70;50.70;;;;;;6309986;28;20040;-85
2022/06/18 05:28:35;;;;;;;2.95;0.93;;;31.30;49.30;;;;;;6308216;28;20048;-86
2022/06/18 05:31:38;;;;;;;2.92;1.00;;;31.80;48.00;;;;;;6324014;28;20043;-84
2022/06/18 05:34:39;;;;;;;2.10;0.70;;;32.30;46.70;;;;;;6301970;28;20071;-84
2022/06/18 05:37:42;;;;;;;2.22;0.82;;;32.90;45.20;;;;;;6300124;28;20050;-85
2022/06/18 05:40:43;;;;;;;1.10;0.55;;;33.40;44.10;;;;;;6300924;28;20231;-84
2022/06/18 05:43:45;;;;;;;2.22;0.50;;;34.00;42.90;;;;;;6299738;28;20059;-85
2022/06/18 05:46:48;;;;;;;1.10;0.50;;;34.50;42.20;;;;;;6301834;28;20045;-84
2022/06/18 05:49:51;;;;;;;1.42;0.68;;;35.00;40.90;;;;;;6300063;28;20070;-84
2022/06/18 05:52:53;;;;;;;1.08;0.70;;;35.50;39.20;;;;;;6301025;28;20052;-84
2022/06/18 05:55:55;;;;;;;1.65;0.57;;;35.90;38.20;;;;;;6301762;28;20046;-84
2022/06/18 05:58:58;;;;;;;0.77;0.47;;;36.20;37.20;;;;;;6301257;28;20490;-85
2022/06/18 06:02:01;;;;;;;1.85;0.73;;;36.40;36.40;;;;;;6301891;28;20040;-84
2022/06/18 06:05:03;;;;;;;1.67;0.70;;;36.70;36.10;;;;;;6301819;28;20044;-84
2022/06/18 06:08:06;;;;;;;2.75;0.68;;;36.90;35.40;;;;;;6301440;28;20494;-84
2022/06/18 06:14:29;;;;;;;1.13;0.60;;;37.60;34.60;;;;;;6302196;28;20048;-85
2022/06/18 06:17:33;;;;;;;2.63;1.08;;;37.90;34.20;;;;;;6301752;28;20442;-84
2022/06/18 06:20:38;;;;;;;4.65;1.00;;;38.00;34.20;;;;;;6302077;28;20075;-84
2022/06/18 06:23:39;;;;;;;1.63;0.60;;;38.30;33.60;;;;;;6302469;28;20048;-85
2022/06/18 06:26:41;;;;;;;4.15;0.77;;;38.40;33.10;;;;;;6303402;28;20049;-85
2022/06/18 06:29:43;;;;;;;3.80;0.70;;;38.80;33.10;;;;;;6302778;28;20043;-85
2022/06/18 06:32:46;;;;;;;1.48;0.88;;;39.20;32.50;;;;;;6302083;28;20399;-84
2022/06/18 06:35:50;;;;;;;3.72;0.65;;;39.50;32.30;;;;;;6302705;28;20052;-85
2022/06/18 06:38:52;;;;;;;2.42;0.85;;;39.90;31.50;;;;;;6305206;28;20127;-85
2022/06/18 06:41:54;;;;;;;6.50;0.90;;;40.10;31.70;;;;;;6303148;28;20051;-85
2022/06/18 06:44:55;;;;;;;2.30;0.63;;;40.80;31.00;;;;;;6305361;28;20138;-86
2022/06/18 06:47:59;;;;;;;5.63;1.63;;;41.40;30.40;;;;;;6304795;28;20409;-85
2022/06/18 06:51:01;;;;;;;9.98;1.20;;;42.00;30.00;;;;;;6314048;28;20103;-85
2022/06/18 06:54:03;;;;;;;1.95;1.17;;;42.50;29.70;;;;;;6310302;28;20048;-85
2022/06/18 06:57:22;;;;;;;1.48;0.90;;;43.00;29.90;;;;;;6302984;28;20041;-85
2022/06/18 07:00:23;;;;;;;4.40;1.02;;;43.50;29.10;;;;;;6303071;28;20036;-85
2022/06/18 07:03:30;;;;;;;3.72;1.25;;;43.80;28.70;;;;;;6303030;28;20049;-82
2022/06/18 07:06:33;;;;;;;3.87;0.77;;;44.20;28.30;;;;;;6302916;28;20052;-82
2022/06/18 07:09:35;;;;;;;3.95;0.40;;;44.20;28.10;;;;;;6301733;28;20045;-83
2022/06/18 07:12:36;;;;;;;2.88;0.45;;;44.50;28.20;;;;;;6302187;28;20048;-83
2022/06/18 07:15:38;;;;;;;1.67;0.80;;;44.90;27.90;;;;;;6303098;28;20446;-84
2022/06/18 07:18:41;;;;;;;1.60;0.70;;;45.00;27.60;;;;;;6302695;28;20055;-86
2022/06/18 07:21:43;;;;;;;1.00;0.63;;;44.90;26.70;;;;;;6301643;28;20048;-83
2022/06/18 07:24:45;;;;;;;6.53;0.95;;;45.00;26.60;;;;;;6301918;28;20064;-83
2022/06/18 07:27:52;;;;;;;1.23;0.57;;;45.00;26.70;;;;;;6302668;28;20037;-82
2022/06/18 07:30:55;;;;;;;;;;;44.50;26.60;;;;;;6282176;28;20697;-82
2022/06/18 07:34:01;;;;;;;1.50;0.80;;;42.20;27.80;;;;;;6323445;28;19924;-82
2022/06/18 07:37:03;;;;;;;1.10;0.50;;;39.80;28.90;;;;;;6331236;28;20517;-83
2022/06/18 07:40:06;;;;;;;4.13;1.08;;;37.90;30.30;;;;;;6320707;28;20106;-83
2022/06/18 07:43:09;;;;;;;2.50;1.00;;;36.60;32.10;;;;;;6331767;28;20131;-82
2022/06/18 07:46:11;;;;;;;3.95;1.05;;;35.80;33.70;;;;;;6331807;28;20052;-83
2022/06/18 07:49:14;;;;;;;2.33;0.98;;;35.30;34.50;;;;;;6328279;28;20048;-85
2022/06/18 07:52:16;;;;;;;4.68;0.60;;;34.90;35.30;;;;;;6334749;28;20119;-82
2022/06/18 07:55:28;;;;;;;2.22;0.80;;;34.60;35.60;;;;;;6323836;28;20048;-84
2022/06/18 07:58:32;;;;;;;5.22;0.98;;;34.50;35.90;;;;;;6274623;28;20041;-83
2022/06/18 08:01:34;;;;;;;4.20;0.70;;;34.20;36.30;;;;;;6259614;28;20057;-85
2022/06/18 08:04:37;;;;;;;2.35;1.00;;;34.20;36.30;;;;;;6252444;28;20045;-83
2022/06/18 08:07:39;;;;;;;3.83;1.10;;;34.20;36.40;;;;;;6251544;28;20049;-84
2022/06/18 08:10:43;;;;;;;3.97;0.70;;;34.10;36.50;;;;;;6252386;28;20059;-85
2022/06/18 08:13:50;;;;;;;6.38;1.00;;;34.00;36.70;;;;;;6254144;28;20042;-86
2022/06/18 08:16:52;;;;;;;1.88;0.50;;;34.10;36.80;;;;;;6254355;28;20052;-83
2022/06/18 08:19:55;;;;;;;1.23;0.77;;;34.10;36.80;;;;;;6250847;28;20056;-86
2022/06/18 08:22:59;;;;;;;3.60;0.82;;;34.20;37.10;;;;;;6255266;28;20046;-84
2022/06/18 08:26:01;;;;;;;1.95;0.90;;;34.30;36.70;;;;;;6260780;28;20056;-84
2022/06/18 08:29:06;;;;;;;2.05;0.68;;;34.40;36.50;;;;;;6261260;28;20037;-82
2022/06/18 08:32:09;;;;;;;2.78;1.00;;;34.40;36.10;;;;;;6263134;28;20053;-82
2022/06/18 08:35:13;;;;;;;2.92;0.93;;;34.60;36.30;;;;;;6262694;28;20053;-82
2022/06/18 08:38:15;;;;;;;5.30;0.82;;;34.70;36.20;;;;;;6287029;28;20051;-83
2022/06/18 08:41:32;;;;;;;1.17;0.95;;;34.80;36.00;;;;;;6286753;28;20055;-82
2022/06/18 08:44:51;;;;;;;3.25;0.85;;;35.00;35.50;;;;;;6274444;28;20045;-86
2022/06/18 08:48:15;;;;;;;3.85;1.00;;;35.10;35.40;;;;;;6260653;28;20045;-83
2022/06/18 08:51:33;;;;;;;2.08;1.25;;;35.10;35.40;;;;;;6261708;28;20042;-83
2022/06/18 08:54:47;;;;;;;6.03;0.90;;;35.10;35.60;;;;;;6301310;28;20517;-86
2022/06/18 08:57:55;;;;;;;3.55;0.82;;;35.10;36.40;;;;;;6307704;28;20052;-86
2022/06/18 09:01:02;;;;;;;2.83;0.70;;;35.00;35.60;;;;;;6310228;28;20058;-86
2022/06/18 09:04:14;;;;;;;2.08;0.60;;;35.10;35.40;;;;;;6301642;28;20694;-82
2022/06/18 09:07:52;;;;;;;0.77;0.70;;;35.40;35.40;;;;;;6305806;28;20053;-83
2022/06/18 09:11:34;;;;;;;3.83;0.73;;;35.50;35.20;;;;;;6302694;28;20048;-84
2022/06/18 09:14:40;;;;;;;3.75;0.70;;;35.70;35.40;;;;;;6300434;28;20052;-85
2022/06/18 09:17:47;;;;;;;3.53;0.98;;;35.90;34.50;;;;;;6300499;28;20049;-83
2022/06/18 09:20:53;;;;;;;1.25;0.95;;;36.00;34.30;;;;;;6307481;28;20139;-81
2022/06/18 09:24:00;;;;;;;1.63;0.50;;;36.20;33.60;;;;;;6309756;28;20064;-81
2022/06/18 09:27:06;;;;;;;4.35;1.00;;;36.40;33.20;;;;;;6241851;28;20092;-84
2022/06/18 09:30:12;;;;;;;3.50;0.75;;;36.50;33.40;;;;;;6305696;28;20037;-85
2022/06/18 09:33:19;;;;;;;2.40;0.55;;;36.70;33.00;;;;;;6307489;28;20047;-86
2022/06/18 09:36:26;;;;;;;5.07;0.77;;;36.80;32.30;;;;;;6326850;28;20059;-85
2022/06/18 09:39:34;;;;;;;0.77;0.57;;;37.00;32.30;;;;;;6342543;28;20074;-82
2022/06/18 09:42:43;;;;;;;2.70;1.00;;;37.10;32.00;;;;;;6306948;28;20053;-85
2022/06/18 09:45:48;;;;;;;0.98;0.50;;;37.30;32.30;;;;;;6299680;28;20063;-85
2022/06/18 09:48:51;;;;;;;3.08;0.60;;;37.50;31.60;;;;;;6303325;28;20047;-83
2022/06/18 09:51:56;;;;;;;5.60;0.90;;;37.50;32.10;;;;;;6300931;28;20040;-86
2022/06/18 09:55:04;;;;;;;3.25;0.73;;;37.40;31.90;;;;;;6301763;28;20490;-83
2022/06/18 09:58:12;;;;;;;3.00;1.05;;;37.50;31.70;;;;;;6303851;28;20056;-83
2022/06/18 10:01:21;;;;;;;4.78;0.90;;;37.60;31.30;;;;;;6307724;28;20478;-84
2022/06/18 10:07:53;;;;;;;2.10;0.60;;;37.50;31.20;;;;;;6281210;28;20124;-84
2022/06/18 10:11:07;;;;;;;2.08;0.57;;;37.90;31.40;;;;;;6277701;28;20048;-84
2022/06/18 10:14:14;;;;;;;5.15;0.75;;;38.70;30.80;;;;;;6303381;28;20084;-83
2022/06/18 10:17:26;;;;;;;3.53;1.00;;;39.60;30.00;;;;;;6308453;28;20048;-82
2022/06/18 10:20:36;;;;;;;8.85;0.90;;;40.10;29.80;;;;;;6306634;28;20048;-83
2022/06/18 10:23:47;;;;;;;1.50;0.98;;;40.20;30.10;;;;;;6304818;28;20060;-83
2022/06/18 10:27:00;;;;;;;2.28;0.68;;;39.90;29.50;;;;;;6307837;28;20070;-83
2022/06/18 10:30:07;;;;;;;4.85;0.57;;;39.40;30.00;;;;;;6308948;28;20133;-82
2022/06/18 10:33:19;;;;;;;3.70;0.70;;;39.10;30.30;;;;;;6292967;28;20534;-82
2022/06/18 10:36:29;;;;;;;2.67;0.50;;;39.00;30.30;;;;;;6273497;28;20048;-83
2022/06/18 10:39:38;;;;;;;2.00;0.40;;;38.80;30.50;;;;;;6308807;28;20052;-83
2022/06/18 10:43:03;;;;;;;7.93;0.95;;;38.90;30.10;;;;;;6305514;28;20055;-82
2022/06/18 10:46:09;;;;;;;1.30;0.60;;;39.00;30.90;;;;;;6276427;28;20041;-83
2022/06/18 10:49:12;;;;;;;0.60;0.37;;;39.20;30.40;;;;;;6282842;28;20072;-82
2022/06/18 10:52:18;;;;;;;0.73;0.22;;;39.30;29.00;;;;;;6294272;28;20052;-81
2022/06/18 10:55:22;;;;;;;1.42;0.40;;;39.30;28.70;;;;;;6307796;28;20094;-81
2022/06/18 10:58:25;;;;;;;1.88;0.32;;;39.10;28.10;;;;;;6303511;28;20055;-83
2022/06/18 11:01:31;;;;;;;1.30;0.28;;;38.90;28.50;;;;;;6305525;28;20124;-82
2022/06/18 11:04:33;;;;;;;2.60;0.70;;;39.00;28.70;;;;;;6301350;28;20041;-83
2022/06/18 11:07:36;;;;;;;0.70;0.40;;;39.30;28.50;;;;;;6301428;28;20076;-83
2022/06/18 11:10:43;;;;;;;2.30;0.47;;;39.60;28.30;;;;;;6299037;28;20049;-83
2022/06/18 11:13:48;;;;;;;0.82;0.50;;;39.80;28.20;;;;;;6297463;28;20055;-84
2022/06/18 11:16:58;;;;;;;0.68;0.50;;;40.00;28.50;;;;;;6229105;28;20066;-82
2022/06/18 11:20:09;;;;;;;2.58;0.70;;;40.30;28.60;;;;;;6277261;28;20083;-84
2022/06/18 11:23:16;;;;;;;1.00;0.40;;;40.60;28.10;;;;;;6300256;28;20048;-84
2022/06/18 11:26:22;;;;;;;2.45;0.63;;;40.90;28.60;;;;;;6302952;28;20049;-84
2022/06/18 11:29:31;;;;;;;2.80;0.38;;;41.10;28.80;;;;;;6302215;28;20417;-83
2022/06/18 11:32:37;;;;;;;9.02;1.02;;;41.30;29.00;;;;;;6302474;28;20051;-84
2022/06/18 11:35:41;;;;;;;3.20;0.60;;;41.40;29.10;;;;;;6292811;28;20056;-84
2022/06/18 11:38:53;;;;;;;1.92;0.60;;;41.60;28.80;;;;;;6300834;28;20048;-83
2022/06/18 11:41:58;;;;;;;1.75;0.75;;;41.70;28.90;;;;;;6301057;28;20053;-83
2022/06/18 11:45:21;;;;;;;3.42;0.52;;;41.70;29.00;;;;;;6300666;28;20053;-84
2022/06/18 11:48:30;;;;;;;2.40;0.52;;;41.80;28.70;;;;;;6299309;28;20068;-82
2022/06/18 11:51:37;;;;;;;0.90;0.52;;;42.00;28.30;;;;;;6298755;28;20044;-83
2022/06/18 11:54:46;;;;;;;1.63;0.38;;;42.30;28.50;;;;;;6299047;28;20053;-83
2022/06/18 11:57:54;;;;;;;4.93;0.77;;;42.40;28.80;;;;;;6302574;28;20064;-82
2022/06/18 12:01:04;;;;;;;4.00;0.60;;;42.60;28.40;;;;;;6305568;28;20044;-84
2022/06/18 12:04:14;;;;;;;4.75;0.52;;;42.70;28.20;;;;;;6301524;28;20045;-83
2022/06/18 12:07:22;;;;;;;5.32;0.52;;;42.50;28.00;;;;;;6304673;28;20052;-82
2022/06/18 12:14:09;;;;;;;0.55;0.28;;;42.50;28.20;;;;;;6248991;28;20732;-84
2022/06/18 12:17:20;;;;;;;1.75;0.57;;;42.70;28.00;;;;;;6294311;28;20124;-84
2022/06/18 12:20:50;;;;;;;2.95;0.70;;;43.00;28.10;;;;;;6308893;28;20493;-83
2022/06/18 12:24:00;;;;;;;2.38;0.55;;;43.20;27.60;;;;;;6309423;28;20040;-83
2022/06/18 12:27:07;;;;;;;6.32;0.70;;;43.20;27.70;;;;;;6306815;28;20056;-83
2022/06/18 12:30:11;;;;;;;;;;;43.20;27.10;;;;;;6305757;28;20051;-82
2022/06/18 12:33:21;;;;;;;4.40;0.80;;;43.20;27.10;;;;;;6305992;28;19921;-85
2022/06/18 12:36:34;;;;;;;2.30;0.55;;;43.20;26.60;;;;;;6301537;28;20056;-84
2022/06/18 12:39:48;;;;;;;6.07;0.80;;;43.10;27.30;;;;;;6281984;28;20498;-83
2022/06/18 12:42:53;;;;;;;1.20;0.55;;;43.30;27.80;;;;;;6282077;28;20047;-84
2022/06/18 12:46:02;;;;;;;1.60;0.28;;;43.50;27.60;;;;;;6276655;28;20055;-84
2022/06/18 12:49:10;;;;;;;2.47;0.40;;;43.60;27.30;;;;;;6278242;28;20052;-83
2022/06/18 12:52:23;;;;;;;3.33;0.38;;;43.40;27.20;;;;;;6281477;28;20040;-84
2022/06/18 12:55:34;;;;;;;3.13;0.73;;;43.20;27.70;;;;;;6306055;28;20560;-83
2022/06/18 12:58:45;;;;;;;5.18;0.73;;;43.10;27.80;;;;;;6306146;28;20048;-84
2022/06/18 13:01:55;;;;;;;2.10;0.40;;;42.70;26.70;;;;;;6306462;28;20116;-84
2022/06/18 13:05:09;;;;;;;2.45;0.70;;;42.50;26.90;;;;;;6307923;28;20044;-83
2022/06/18 13:08:33;;;;;;;2.03;0.40;;;42.30;26.60;;;;;;6305320;28;20056;-84
2022/06/18 13:11:46;;;;;;;4.20;0.90;;;42.50;27.00;;;;;;6281257;28;20495;-82
2022/06/18 13:15:02;;;;;;;1.30;0.65;;;42.60;26.90;;;;;;6282311;28;20580;-83
2022/06/18 13:18:12;;;;;;;4.72;0.77;;;42.40;26.80;;;;;;6281126;28;20053;-82
2022/06/18 13:21:15;;;;;;;2.38;0.60;;;42.50;27.00;;;;;;6281508;28;20052;-83
2022/06/18 13:31:15;;;;;;;2.25;0.70;;;42.70;27.00;;;;;;6283905;28;20044;-85
2022/06/18 13:34:26;;;;;;;3.50;0.73;;;42.90;26.80;;;;;;6278865;28;20055;-84
2022/06/18 13:37:37;;;;;;;7.78;0.85;;;43.00;26.80;;;;;;6289197;28;20073;-84
2022/06/18 13:40:43;;;;;;;3.65;0.82;;;42.80;26.80;;;;;;6303756;28;20043;-84
2022/06/18 13:43:52;;;;;;;3.42;0.70;;;42.40;27.60;;;;;;6305128;28;20040;-85
2022/06/18 13:47:01;;;;;;;7.80;0.80;;;42.30;27.50;;;;;;6314088;28;20036;-83
2022/06/18 13:50:11;;;;;;;6.57;0.73;;;42.50;27.30;;;;;;6311690;28;20059;-83
2022/06/18 13:53:25;;;;;;;5.63;0.70;;;42.90;27.10;;;;;;6300481;28;20048;-85
2022/06/18 13:56:27;;;;;;;3.88;0.95;;;42.90;27.10;;;;;;6300615;28;20067;-84
2022/06/18 13:59:30;;;;;;;5.75;0.70;;;42.50;27.20;;;;;;6291207;28;20056;-84
2022/06/18 14:02:40;;;;;;;7.78;1.15;;;42.20;27.30;;;;;;6302978;28;20055;-84
2022/06/18 14:05:45;;;;;;;5.43;0.80;;;42.00;27.30;;;;;;6300479;28;20060;-84
2022/06/18 14:08:52;;;;;;;12.70;1.02;;;42.40;27.30;;;;;;6300936;28;20064;-84
2022/06/18 14:12:01;;;;;;;7.45;0.60;;;42.70;26.80;;;;;;6303042;28;20416;-84
2022/06/18 14:15:19;;;;;;;3.53;0.90;;;42.60;27.20;;;;;;6303855;28;20057;-83
2022/06/18 14:18:22;;;;;;;8.80;1.58;;;42.70;27.00;;;;;;6302912;28;20049;-84
2022/06/18 14:21:27;;;;;;;3.97;0.60;;;43.00;27.40;;;;;;6301762;28;20041;-84
2022/06/18 14:24:40;;;;;;;9.02;0.90;;;43.00;27.10;;;;;;6304639;28;20417;-84
2022/06/18 14:27:48;;;;;;;5.70;1.25;;;42.60;27.30;;;;;;6304356;28;20405;-82
2022/06/18 14:31:00;;;;;;;6.10;1.63;;;42.40;26.90;;;;;;6304748;28;20037;-83
2022/06/18 14:34:09;;;;;;;7.72;0.90;;;42.30;27.10;;;;;;6303438;28;20048;-83
2022/06/18 14:37:12;;;;;;;5.63;0.93;;;42.10;27.00;;;;;;6303931;28;20051;-82
2022/06/18 14:40:22;;;;;;;11.40;0.88;;;42.00;27.30;;;;;;6295114;28;20040;-82
2022/06/18 14:43:37;;;;;;;5.93;1.20;;;41.80;27.10;;;;;;6302630;28;20048;-83
2022/06/18 14:46:58;;;;;;;6.18;0.85;;;41.80;27.20;;;;;;6301866;28;20549;-82
2022/06/18 14:50:18;;;;;;;12.80;1.63;;;42.20;26.90;;;;;;6301510;28;20045;-82
2022/06/18 14:53:50;;;;;;;13.25;1.90;;;42.00;26.60;;;;;;6312446;28;20162;-81
2022/06/18 14:57:25;;;;;;;7.00;0.80;;;41.60;26.50;;;;;;6327298;28;20048;-82
2022/06/18 15:00:53;;;;;;;9.38;1.05;;;41.50;26.90;;;;;;6310779;28;20044;-83
2022/06/18 15:04:05;;;;;;;10.40;1.80;;;41.60;26.70;;;;;;6300611;28;20043;-83
2022/06/18 15:07:08;;;;;;;6.45;1.17;;;41.80;26.60;;;;;;6302086;28;20048;-82
2022/06/18 15:10:15;;;;;;;13.38;1.40;;;41.60;26.90;;;;;;6301880;28;20068;-83
2022/06/18 15:13:17;;;;;;;15.68;1.30;;;41.50;26.80;;;;;;6301865;28;20055;-83
2022/06/18 15:16:37;;;;;;;8.63;1.27;;;41.80;26.80;;;;;;6275961;28;20066;-83
2022/06/18 15:19:42;;;;;;;8.70;1.70;;;41.70;26.90;;;;;;6301811;28;20052;-82
2022/06/18 15:23:00;;;;;;;15.85;1.55;;;41.90;26.80;;;;;;6302490;28;20072;-83
2022/06/18 15:26:09;;;;;;;7.75;1.27;;;42.30;26.70;;;;;;6300475;28;20403;-83
2022/06/18 15:29:16;;;;;;;12.07;1.42;;;42.60;26.30;;;;;;6300653;28;20049;-83
2022/06/18 15:32:24;;;;;;;11.25;2.08;;;42.80;26.90;;;;;;6293003;28;20044;-83
2022/06/18 15:35:27;;;;;;;11.43;1.90;;;43.00;26.50;;;;;;6301225;28;20129;-84
2022/06/18 15:38:33;;;;;;;9.82;2.00;;;43.10;26.50;;;;;;6294194;28;20071;-82
2022/06/18 15:41:37;;;;;;;16.85;1.95;;;43.20;26.20;;;;;;6278548;28;20045;-84
2022/06/18 15:44:44;;;;;;;10.30;1.77;;;43.00;26.90;;;;;;6275099;28;20049;-84
2022/06/18 15:47:49;;;;;;;7.43;0.70;;;43.00;27.50;;;;;;6277048;28;20059;-84
2022/06/18 15:50:54;;;;;;;13.13;1.58;;;42.90;27.70;;;;;;6275917;28;20045;-84
2022/06/18 15:53:59;;;;;;;12.05;1.05;;;42.90;27.60;;;;;;6276494;28;20059;-84
2022/06/18 15:57:11;;;;;;;4.15;1.00;;;42.70;27.80;;;;;;6276992;28;20045;-83
2022/06/18 16:00:20;;;;;;;3.88;1.00;;;42.70;27.90;;;;;;6285890;28;20052;-84
2022/06/18 16:03:26;;;;;;;9.88;1.33;;;42.50;27.90;;;;;;6274158;28;20041;-83
2022/06/18 16:06:28;;;;;;;8.60;1.98;;;42.50;28.20;;;;;;6276340;28;20418;-82
2022/06/18 16:09:42;;;;;;;6.32;0.82;;;42.40;28.40;;;;;;6284866;28;20041;-82
2022/06/18 16:12:44;;;;;;;5.38;1.02;;;42.30;28.80;;;;;;6301005;28;20079;-84
2022/06/18 16:15:48;;;;;;;10.00;1.92;;;42.20;28.70;;;;;;6290420;28;20135;-84
2022/06/18 16:18:58;;;;;;;6.05;1.10;;;42.10;28.60;;;;;;6300949;28;20062;-84
2022/06/18 16:22:01;;;;;;;13.32;2.47;;;42.10;28.50;;;;;;6301398;28;20044;-82
2022/06/18 16:25:16;;;;;;;7.20;0.95;;;42.00;28.80;;;;;;6298741;28;20106;-82
2022/06/18 16:28:21;;;;;;;6.47;1.08;;;42.00;28.90;;;;;;6301048;28;20071;-84
2022/06/18 16:31:23;;;;;;;10.82;1.33;;;41.90;29.10;;;;;;6300237;28;20052;-84
2022/06/18 16:34:52;;;;;;;9.07;1.55;;;41.80;29.30;;;;;;6300723;28;20220;-84
2022/06/18 16:37:53;;;;;;;9.38;1.35;;;41.70;29.10;;;;;;6300494;28;20058;-81
2022/06/18 16:41:07;;;;;;;5.78;1.02;;;41.60;29.20;;;;;;6300937;28;20426;-83